sensor_id;sensor_type;location;lat;lon;timestamp;P1;durP1;ratioP1;P2;durP2;ratioP2
1719;SDS011;857;52.872;9.692;2022-12-24T00:00:08;7.27;;;5.00;;
1719;SDS011;857;52.872;9.692;2022-12-24T00:02:36;8.17;;;5.27;;
1719;SDS011;857;52.872;9.692;2022-12-24T00:05:04;6.47;;;5.00;;
1719;SDS011;857;52.872;9.692;2022-12-24T00:07:32;8.10;;;5.10;;
1719;SDS011;857;52.872;9.692;2022-12-24T00:10:01;7.70;;;5.40;;
1719;SDS011;857;52.872;9.692;2022-12-24T00:12:29;7.20;;;4.93;;
1719;SDS011;857;52.872;9.692;2022-12-24T00:14:56;7.47;;;4.87;;
1719;SDS011;857;52.872;9.692;2022-12-24T00:17:24;6.43;;;4.90;;
1719;SDS011;857;52.872;9.692;2022-12-24T00:19:52;8.97;;;5.10;;
1719;SDS011;857;52.872;9.692;2022-12-24T00:22:19;7.80;;;5.07;;
1719;SDS011;857;52.872;9.692;2022-12-24T00:24:47;7.10;;;4.20;;
1719;SDS011;857;52.872;9.692;2022-12-24T00:27:16;8.93;;;5.50;;
1719;SDS011;857;52.872;9.692;2022-12-24T00:29:44;7.57;;;4.50;;
1719;SDS011;857;52.872;9.692;2022-12-24T00:32:11;7.63;;;4.63;;
1719;SDS011;857;52.872;9.692;2022-12-24T00:34:39;8.80;;;5.50;;
1719;SDS011;857;52.872;9.692;2022-12-24T00:37:07;4.80;;;3.83;;
1719;SDS011;857;52.872;9.692;2022-12-24T00:39:34;9.20;;;4.67;;
1719;SDS011;857;52.872;9.692;2022-12-24T00:42:02;6.80;;;4.60;;
1719;SDS011;857;52.872;9.692;2022-12-24T00:44:31;6.03;;;4.43;;
1719;SDS011;857;52.872;9.692;2022-12-24T00:46:59;6.00;;;4.10;;
1719;SDS011;857;52.872;9.692;2022-12-24T00:49:26;7.03;;;3.50;;
1719;SDS011;857;52.872;9.692;2022-12-24T00:51:54;8.13;;;4.30;;
1719;SDS011;857;52.872;9.692;2022-12-24T00:54:22;7.43;;;4.63;;
1719;SDS011;857;52.872;9.692;2022-12-24T00:56:49;7.33;;;4.63;;
1719;SDS011;857;52.872;9.692;2022-12-24T00:59:17;5.80;;;3.87;;
1719;SDS011;857;52.872;9.692;2022-12-24T01:01:46;6.33;;;3.93;;
1719;SDS011;857;52.872;9.692;2022-12-24T01:04:14;5.83;;;4.20;;
1719;SDS011;857;52.872;9.692;2022-12-24T01:06:59;6.80;;;4.20;;
1719;SDS011;857;52.872;9.692;2022-12-24T01:09:26;6.43;;;4.00;;
1719;SDS011;857;52.872;9.692;2022-12-24T01:11:54;5.10;;;2.90;;
1719;SDS011;857;52.872;9.692;2022-12-24T01:14:22;6.30;;;3.70;;
1719;SDS011;857;52.872;9.692;2022-12-24T01:16:51;6.30;;;3.40;;
1719;SDS011;857;52.872;9.692;2022-12-24T01:19:19;5.90;;;3.60;;
1719;SDS011;857;52.872;9.692;2022-12-24T01:21:46;4.27;;;3.00;;
1719;SDS011;857;52.872;9.692;2022-12-24T01:24:15;6.27;;;3.50;;
1719;SDS011;857;52.872;9.692;2022-12-24T01:26:42;4.40;;;2.80;;
1719;SDS011;857;52.872;9.692;2022-12-24T01:29:10;5.40;;;3.67;;
1719;SDS011;857;52.872;9.692;2022-12-24T01:31:38;4.60;;;3.10;;
1719;SDS011;857;52.872;9.692;2022-12-24T01:34:07;4.30;;;2.83;;
1719;SDS011;857;52.872;9.692;2022-12-24T01:36:34;4.20;;;3.17;;
1719;SDS011;857;52.872;9.692;2022-12-24T01:39:02;7.77;;;3.87;;
1719;SDS011;857;52.872;9.692;2022-12-24T01:41:30;4.60;;;3.50;;
1719;SDS011;857;52.872;9.692;2022-12-24T01:44:20;5.10;;;3.20;;
1719;SDS011;857;52.872;9.692;2022-12-24T01:46:48;7.77;;;3.70;;
1719;SDS011;857;52.872;9.692;2022-12-24T01:49:18;4.63;;;3.10;;
1719;SDS011;857;52.872;9.692;2022-12-24T01:51:46;3.93;;;3.20;;
1719;SDS011;857;52.872;9.692;2022-12-24T01:54:16;4.10;;;2.73;;
1719;SDS011;857;52.872;9.692;2022-12-24T01:56:46;4.47;;;3.13;;
1719;SDS011;857;52.872;9.692;2022-12-24T01:59:14;4.67;;;3.27;;
1719;SDS011;857;52.872;9.692;2022-12-24T02:01:43;6.63;;;3.10;;
1719;SDS011;857;52.872;9.692;2022-12-24T02:04:12;4.20;;;3.10;;
1719;SDS011;857;52.872;9.692;2022-12-24T02:06:44;5.03;;;3.10;;
1719;SDS011;857;52.872;9.692;2022-12-24T02:09:11;4.27;;;2.80;;
1719;SDS011;857;52.872;9.692;2022-12-24T02:11:39;3.50;;;2.73;;
1719;SDS011;857;52.872;9.692;2022-12-24T02:14:09;2.90;;;2.20;;
1719;SDS011;857;52.872;9.692;2022-12-24T02:16:37;3.13;;;2.40;;
1719;SDS011;857;52.872;9.692;2022-12-24T02:19:12;3.23;;;2.70;;
1719;SDS011;857;52.872;9.692;2022-12-24T02:21:47;3.67;;;2.83;;
1719;SDS011;857;52.872;9.692;2022-12-24T02:24:20;4.93;;;3.07;;
1719;SDS011;857;52.872;9.692;2022-12-24T02:26:59;4.27;;;2.73;;
1719;SDS011;857;52.872;9.692;2022-12-24T02:32:08;3.60;;;2.60;;
1719;SDS011;857;52.872;9.692;2022-12-24T02:34:37;3.63;;;2.77;;
1719;SDS011;857;52.872;9.692;2022-12-24T02:37:07;4.00;;;2.80;;
1719;SDS011;857;52.872;9.692;2022-12-24T02:39:38;3.43;;;2.43;;
1719;SDS011;857;52.872;9.692;2022-12-24T02:42:07;2.83;;;2.43;;
1719;SDS011;857;52.872;9.692;2022-12-24T02:44:36;2.20;;;2.00;;
1719;SDS011;857;52.872;9.692;2022-12-24T02:47:07;2.27;;;2.07;;
1719;SDS011;857;52.872;9.692;2022-12-24T02:49:36;2.40;;;2.03;;
1719;SDS011;857;52.872;9.692;2022-12-24T02:52:04;2.40;;;1.70;;
1719;SDS011;857;52.872;9.692;2022-12-24T02:54:31;2.10;;;1.80;;
1719;SDS011;857;52.872;9.692;2022-12-24T02:57:04;1.73;;;1.43;;
1719;SDS011;857;52.872;9.692;2022-12-24T03:02:22;1.67;;;1.50;;
1719;SDS011;857;52.872;9.692;2022-12-24T03:04:54;2.47;;;1.40;;
1719;SDS011;857;52.872;9.692;2022-12-24T03:07:26;1.77;;;1.30;;
1719;SDS011;857;52.872;9.692;2022-12-24T03:09:59;1.57;;;1.47;;
1719;SDS011;857;52.872;9.692;2022-12-24T03:12:31;1.67;;;1.50;;
1719;SDS011;857;52.872;9.692;2022-12-24T03:15:00;1.97;;;1.20;;
1719;SDS011;857;52.872;9.692;2022-12-24T03:17:29;2.40;;;1.80;;
1719;SDS011;857;52.872;9.692;2022-12-24T03:19:58;1.80;;;1.63;;
1719;SDS011;857;52.872;9.692;2022-12-24T03:22:25;1.60;;;1.50;;
1719;SDS011;857;52.872;9.692;2022-12-24T03:24:54;2.33;;;1.70;;
1719;SDS011;857;52.872;9.692;2022-12-24T03:27:21;2.97;;;1.90;;
1719;SDS011;857;52.872;9.692;2022-12-24T03:29:51;2.10;;;1.77;;
1719;SDS011;857;52.872;9.692;2022-12-24T03:32:22;2.40;;;1.80;;
1719;SDS011;857;52.872;9.692;2022-12-24T03:34:51;2.80;;;1.77;;
1719;SDS011;857;52.872;9.692;2022-12-24T03:37:19;2.63;;;1.80;;
1719;SDS011;857;52.872;9.692;2022-12-24T03:39:46;1.60;;;1.23;;
1719;SDS011;857;52.872;9.692;2022-12-24T03:42:14;1.50;;;1.40;;
1719;SDS011;857;52.872;9.692;2022-12-24T03:44:42;1.50;;;1.40;;
1719;SDS011;857;52.872;9.692;2022-12-24T03:47:09;1.63;;;1.00;;
1719;SDS011;857;52.872;9.692;2022-12-24T03:49:37;1.93;;;1.50;;
1719;SDS011;857;52.872;9.692;2022-12-24T03:52:06;2.13;;;1.50;;
1719;SDS011;857;52.872;9.692;2022-12-24T03:54:34;1.60;;;1.30;;
1719;SDS011;857;52.872;9.692;2022-12-24T03:57:02;1.80;;;1.53;;
1719;SDS011;857;52.872;9.692;2022-12-24T03:59:29;1.13;;;1.03;;
1719;SDS011;857;52.872;9.692;2022-12-24T04:01:57;1.70;;;1.50;;
1719;SDS011;857;52.872;9.692;2022-12-24T04:04:25;1.77;;;1.53;;
1719;SDS011;857;52.872;9.692;2022-12-24T04:06:53;1.60;;;1.47;;
1719;SDS011;857;52.872;9.692;2022-12-24T04:09:22;3.77;;;1.20;;
1719;SDS011;857;52.872;9.692;2022-12-24T04:11:49;2.03;;;1.50;;
1719;SDS011;857;52.872;9.692;2022-12-24T04:14:17;1.77;;;1.50;;
1719;SDS011;857;52.872;9.692;2022-12-24T04:16:45;4.40;;;1.77;;
1719;SDS011;857;52.872;9.692;2022-12-24T04:19:12;1.57;;;1.30;;
1719;SDS011;857;52.872;9.692;2022-12-24T04:21:40;2.93;;;1.50;;
1719;SDS011;857;52.872;9.692;2022-12-24T04:24:08;2.07;;;1.63;;
1719;SDS011;857;52.872;9.692;2022-12-24T04:26:37;1.90;;;1.40;;
1719;SDS011;857;52.872;9.692;2022-12-24T04:29:04;2.47;;;1.60;;
1719;SDS011;857;52.872;9.692;2022-12-24T04:31:32;1.30;;;1.20;;
1719;SDS011;857;52.872;9.692;2022-12-24T04:34:00;1.50;;;1.40;;
1719;SDS011;857;52.872;9.692;2022-12-24T04:36:27;2.43;;;1.47;;
1719;SDS011;857;52.872;9.692;2022-12-24T04:38:55;2.60;;;1.60;;
1719;SDS011;857;52.872;9.692;2022-12-24T04:41:23;2.07;;;1.30;;
1719;SDS011;857;52.872;9.692;2022-12-24T04:43:52;1.53;;;1.30;;
1719;SDS011;857;52.872;9.692;2022-12-24T04:46:21;12.33;;;2.30;;
1719;SDS011;857;52.872;9.692;2022-12-24T04:48:50;18.40;;;2.37;;
1719;SDS011;857;52.872;9.692;2022-12-24T04:51:18;3.47;;;1.70;;
1719;SDS011;857;52.872;9.692;2022-12-24T04:53:45;1.70;;;1.60;;
1719;SDS011;857;52.872;9.692;2022-12-24T04:56:14;1.77;;;1.57;;
1719;SDS011;857;52.872;9.692;2022-12-24T04:58:42;1.77;;;1.40;;
1719;SDS011;857;52.872;9.692;2022-12-24T05:01:12;2.07;;;1.57;;
1719;SDS011;857;52.872;9.692;2022-12-24T05:03:40;2.23;;;1.80;;
1719;SDS011;857;52.872;9.692;2022-12-24T05:06:08;1.60;;;1.50;;
1719;SDS011;857;52.872;9.692;2022-12-24T05:08:37;1.90;;;1.43;;
1719;SDS011;857;52.872;9.692;2022-12-24T05:11:05;1.80;;;1.23;;
1719;SDS011;857;52.872;9.692;2022-12-24T05:13:33;1.97;;;1.40;;
1719;SDS011;857;52.872;9.692;2022-12-24T05:16:01;1.60;;;1.40;;
1719;SDS011;857;52.872;9.692;2022-12-24T05:18:30;2.63;;;1.47;;
1719;SDS011;857;52.872;9.692;2022-12-24T05:20:57;2.27;;;1.67;;
1719;SDS011;857;52.872;9.692;2022-12-24T05:23:25;1.90;;;1.57;;
1719;SDS011;857;52.872;9.692;2022-12-24T05:26:12;1.70;;;1.60;;
1719;SDS011;857;52.872;9.692;2022-12-24T05:28:51;2.17;;;1.70;;
1719;SDS011;857;52.872;9.692;2022-12-24T05:31:19;2.10;;;1.70;;
1719;SDS011;857;52.872;9.692;2022-12-24T05:33:48;2.23;;;1.60;;
1719;SDS011;857;52.872;9.692;2022-12-24T05:36:16;2.00;;;1.60;;
1719;SDS011;857;52.872;9.692;2022-12-24T05:38:44;4.13;;;2.20;;
1719;SDS011;857;52.872;9.692;2022-12-24T05:41:11;4.13;;;2.07;;
1719;SDS011;857;52.872;9.692;2022-12-24T05:43:39;3.80;;;2.63;;
1719;SDS011;857;52.872;9.692;2022-12-24T05:46:09;5.37;;;4.40;;
1719;SDS011;857;52.872;9.692;2022-12-24T05:48:37;6.43;;;4.17;;
1719;SDS011;857;52.872;9.692;2022-12-24T05:51:07;5.53;;;3.80;;
1719;SDS011;857;52.872;9.692;2022-12-24T05:53:35;5.43;;;3.73;;
1719;SDS011;857;52.872;9.692;2022-12-24T05:56:03;4.80;;;3.80;;
1719;SDS011;857;52.872;9.692;2022-12-24T05:58:31;7.10;;;4.63;;
1719;SDS011;857;52.872;9.692;2022-12-24T06:00:59;6.70;;;4.60;;
1719;SDS011;857;52.872;9.692;2022-12-24T06:03:27;7.43;;;5.30;;
1719;SDS011;857;52.872;9.692;2022-12-24T06:05:59;7.20;;;4.97;;
1719;SDS011;857;52.872;9.692;2022-12-24T06:08:28;10.00;;;6.50;;
1719;SDS011;857;52.872;9.692;2022-12-24T06:10:57;11.33;;;7.47;;
1719;SDS011;857;52.872;9.692;2022-12-24T06:13:25;11.50;;;7.00;;
1719;SDS011;857;52.872;9.692;2022-12-24T06:15:53;13.13;;;8.17;;
1719;SDS011;857;52.872;9.692;2022-12-24T06:18:21;15.80;;;9.90;;
1719;SDS011;857;52.872;9.692;2022-12-24T06:20:49;14.23;;;8.70;;
1719;SDS011;857;52.872;9.692;2022-12-24T06:23:17;14.17;;;9.00;;
1719;SDS011;857;52.872;9.692;2022-12-24T06:25:46;13.67;;;9.37;;
1719;SDS011;857;52.872;9.692;2022-12-24T06:28:14;13.27;;;8.27;;
1719;SDS011;857;52.872;9.692;2022-12-24T06:30:44;15.03;;;9.33;;
1719;SDS011;857;52.872;9.692;2022-12-24T06:33:12;14.40;;;9.30;;
1719;SDS011;857;52.872;9.692;2022-12-24T06:35:40;13.70;;;7.07;;
1719;SDS011;857;52.872;9.692;2022-12-24T06:38:08;16.80;;;10.20;;
1719;SDS011;857;52.872;9.692;2022-12-24T06:40:36;16.23;;;9.50;;
1719;SDS011;857;52.872;9.692;2022-12-24T06:43:06;14.53;;;9.63;;
1719;SDS011;857;52.872;9.692;2022-12-24T06:45:33;16.23;;;10.10;;
1719;SDS011;857;52.872;9.692;2022-12-24T06:48:01;15.70;;;10.40;;
1719;SDS011;857;52.872;9.692;2022-12-24T06:50:29;20.03;;;10.57;;
1719;SDS011;857;52.872;9.692;2022-12-24T06:52:57;19.60;;;11.13;;
1719;SDS011;857;52.872;9.692;2022-12-24T06:55:24;16.87;;;10.63;;
1719;SDS011;857;52.872;9.692;2022-12-24T06:57:52;17.33;;;10.50;;
1719;SDS011;857;52.872;9.692;2022-12-24T07:00:21;18.43;;;9.67;;
1719;SDS011;857;52.872;9.692;2022-12-24T07:02:49;18.53;;;10.43;;
1719;SDS011;857;52.872;9.692;2022-12-24T07:05:17;17.20;;;7.80;;
1719;SDS011;857;52.872;9.692;2022-12-24T07:07:44;18.43;;;8.60;;
1719;SDS011;857;52.872;9.692;2022-12-24T07:10:13;15.43;;;7.90;;
1719;SDS011;857;52.872;9.692;2022-12-24T07:12:42;12.90;;;7.10;;
1719;SDS011;857;52.872;9.692;2022-12-24T07:15:10;15.77;;;6.87;;
1719;SDS011;857;52.872;9.692;2022-12-24T07:17:39;14.73;;;5.27;;
1719;SDS011;857;52.872;9.692;2022-12-24T07:20:09;15.40;;;5.43;;
1719;SDS011;857;52.872;9.692;2022-12-24T07:22:38;16.20;;;6.47;;
1719;SDS011;857;52.872;9.692;2022-12-24T07:25:06;10.00;;;4.40;;
1719;SDS011;857;52.872;9.692;2022-12-24T07:27:34;13.50;;;5.57;;
1719;SDS011;857;52.872;9.692;2022-12-24T07:30:01;13.60;;;4.07;;
1719;SDS011;857;52.872;9.692;2022-12-24T07:32:29;19.23;;;4.10;;
1719;SDS011;857;52.872;9.692;2022-12-24T07:34:58;13.37;;;4.53;;
1719;SDS011;857;52.872;9.692;2022-12-24T07:37:26;14.60;;;3.77;;
1719;SDS011;857;52.872;9.692;2022-12-24T07:39:54;19.20;;;4.40;;
1719;SDS011;857;52.872;9.692;2022-12-24T07:42:21;12.00;;;3.90;;
1719;SDS011;857;52.872;9.692;2022-12-24T07:44:49;13.33;;;4.47;;
1719;SDS011;857;52.872;9.692;2022-12-24T07:47:17;16.33;;;3.73;;
1719;SDS011;857;52.872;9.692;2022-12-24T07:49:45;6.80;;;3.53;;
1719;SDS011;857;52.872;9.692;2022-12-24T07:52:14;10.53;;;4.13;;
1719;SDS011;857;52.872;9.692;2022-12-24T07:54:42;13.27;;;3.73;;
1719;SDS011;857;52.872;9.692;2022-12-24T07:57:10;14.40;;;3.87;;
1719;SDS011;857;52.872;9.692;2022-12-24T07:59:37;11.33;;;3.70;;
1719;SDS011;857;52.872;9.692;2022-12-24T08:02:05;18.43;;;3.77;;
1719;SDS011;857;52.872;9.692;2022-12-24T08:04:33;13.23;;;4.80;;
1719;SDS011;857;52.872;9.692;2022-12-24T08:07:01;12.60;;;4.37;;
1719;SDS011;857;52.872;9.692;2022-12-24T08:09:31;13.03;;;3.77;;
1719;SDS011;857;52.872;9.692;2022-12-24T08:11:59;15.43;;;4.10;;
1719;SDS011;857;52.872;9.692;2022-12-24T08:14:27;11.23;;;3.50;;
1719;SDS011;857;52.872;9.692;2022-12-24T08:16:55;11.10;;;4.47;;
1719;SDS011;857;52.872;9.692;2022-12-24T08:19:23;17.37;;;4.40;;
1719;SDS011;857;52.872;9.692;2022-12-24T08:21:50;14.60;;;4.23;;
1719;SDS011;857;52.872;9.692;2022-12-24T08:24:18;20.40;;;4.70;;
1719;SDS011;857;52.872;9.692;2022-12-24T08:26:47;20.33;;;5.23;;
1719;SDS011;857;52.872;9.692;2022-12-24T08:29:15;15.10;;;4.63;;
1719;SDS011;857;52.872;9.692;2022-12-24T08:31:43;19.87;;;4.67;;
1719;SDS011;857;52.872;9.692;2022-12-24T08:34:10;18.60;;;4.67;;
1719;SDS011;857;52.872;9.692;2022-12-24T08:36:38;11.40;;;4.47;;
1719;SDS011;857;52.872;9.692;2022-12-24T08:39:06;19.10;;;4.73;;
1719;SDS011;857;52.872;9.692;2022-12-24T08:41:33;12.73;;;4.00;;
1719;SDS011;857;52.872;9.692;2022-12-24T08:44:03;16.37;;;4.90;;
1719;SDS011;857;52.872;9.692;2022-12-24T08:46:30;17.27;;;4.80;;
1719;SDS011;857;52.872;9.692;2022-12-24T08:48:58;15.00;;;4.80;;
1719;SDS011;857;52.872;9.692;2022-12-24T08:51:26;16.63;;;5.00;;
1719;SDS011;857;52.872;9.692;2022-12-24T08:53:53;20.33;;;5.60;;
1719;SDS011;857;52.872;9.692;2022-12-24T08:56:21;15.43;;;5.70;;
1719;SDS011;857;52.872;9.692;2022-12-24T08:58:49;15.83;;;5.70;;
1719;SDS011;857;52.872;9.692;2022-12-24T09:01:18;21.63;;;5.83;;
1719;SDS011;857;52.872;9.692;2022-12-24T09:03:46;13.70;;;4.40;;
1719;SDS011;857;52.872;9.692;2022-12-24T09:06:14;20.57;;;5.77;;
1719;SDS011;857;52.872;9.692;2022-12-24T09:08:42;18.67;;;5.57;;
1719;SDS011;857;52.872;9.692;2022-12-24T09:11:11;20.73;;;7.43;;
1719;SDS011;857;52.872;9.692;2022-12-24T09:13:39;17.27;;;5.50;;
1719;SDS011;857;52.872;9.692;2022-12-24T09:16:07;14.67;;;5.20;;
1719;SDS011;857;52.872;9.692;2022-12-24T09:18:36;14.45;;;6.03;;
1719;SDS011;857;52.872;9.692;2022-12-24T09:21:05;20.70;;;6.30;;
1719;SDS011;857;52.872;9.692;2022-12-24T09:23:33;18.80;;;6.70;;
1719;SDS011;857;52.872;9.692;2022-12-24T09:26:04;29.97;;;8.53;;
1719;SDS011;857;52.872;9.692;2022-12-24T09:28:32;17.37;;;3.97;;
1719;SDS011;857;52.872;9.692;2022-12-24T09:31:01;15.10;;;4.07;;
1719;SDS011;857;52.872;9.692;2022-12-24T09:33:30;17.60;;;4.47;;
1719;SDS011;857;52.872;9.692;2022-12-24T09:35:59;18.30;;;5.80;;
1719;SDS011;857;52.872;9.692;2022-12-24T09:38:27;12.80;;;4.00;;
1719;SDS011;857;52.872;9.692;2022-12-24T09:40:55;19.97;;;4.93;;
1719;SDS011;857;52.872;9.692;2022-12-24T09:43:23;13.27;;;5.13;;
1719;SDS011;857;52.872;9.692;2022-12-24T09:45:56;15.70;;;5.27;;
1719;SDS011;857;52.872;9.692;2022-12-24T09:48:28;12.00;;;5.60;;
1719;SDS011;857;52.872;9.692;2022-12-24T09:50:59;14.17;;;5.30;;
1719;SDS011;857;52.872;9.692;2022-12-24T09:53:32;15.70;;;4.57;;
1719;SDS011;857;52.872;9.692;2022-12-24T09:56:03;21.30;;;5.87;;
1719;SDS011;857;52.872;9.692;2022-12-24T09:58:33;14.27;;;5.30;;
1719;SDS011;857;52.872;9.692;2022-12-24T10:01:02;12.07;;;5.33;;
1719;SDS011;857;52.872;9.692;2022-12-24T10:03:30;19.70;;;6.43;;
1719;SDS011;857;52.872;9.692;2022-12-24T10:06:02;19.30;;;6.47;;
1719;SDS011;857;52.872;9.692;2022-12-24T10:08:34;17.60;;;5.90;;
1719;SDS011;857;52.872;9.692;2022-12-24T10:11:05;17.63;;;6.10;;
1719;SDS011;857;52.872;9.692;2022-12-24T10:13:38;20.00;;;5.63;;
1719;SDS011;857;52.872;9.692;2022-12-24T10:16:11;21.77;;;6.47;;
1719;SDS011;857;52.872;9.692;2022-12-24T10:18:43;22.03;;;6.20;;
1719;SDS011;857;52.872;9.692;2022-12-24T10:21:14;23.67;;;6.30;;
1719;SDS011;857;52.872;9.692;2022-12-24T10:23:43;18.97;;;6.33;;
1719;SDS011;857;52.872;9.692;2022-12-24T10:26:14;24.40;;;6.45;;
1719;SDS011;857;52.872;9.692;2022-12-24T10:28:45;16.77;;;5.50;;
1719;SDS011;857;52.872;9.692;2022-12-24T10:31:14;17.10;;;6.03;;
1719;SDS011;857;52.872;9.692;2022-12-24T10:33:42;20.27;;;5.43;;
1719;SDS011;857;52.872;9.692;2022-12-24T10:36:11;19.50;;;5.30;;
1719;SDS011;857;52.872;9.692;2022-12-24T10:38:44;23.00;;;6.20;;
1719;SDS011;857;52.872;9.692;2022-12-24T10:41:12;18.23;;;6.00;;
1719;SDS011;857;52.872;9.692;2022-12-24T10:43:40;17.60;;;5.70;;
1719;SDS011;857;52.872;9.692;2022-12-24T10:46:13;13.90;;;6.43;;
1719;SDS011;857;52.872;9.692;2022-12-24T10:48:44;25.10;;;6.07;;
1719;SDS011;857;52.872;9.692;2022-12-24T10:51:14;18.57;;;6.73;;
1719;SDS011;857;52.872;9.692;2022-12-24T10:53:47;24.20;;;7.40;;
1719;SDS011;857;52.872;9.692;2022-12-24T10:56:16;23.00;;;7.60;;
1719;SDS011;857;52.872;9.692;2022-12-24T10:58:45;20.20;;;7.57;;
1719;SDS011;857;52.872;9.692;2022-12-24T11:01:17;17.90;;;6.40;;
1719;SDS011;857;52.872;9.692;2022-12-24T11:03:44;21.37;;;5.90;;
1719;SDS011;857;52.872;9.692;2022-12-24T11:06:13;15.43;;;5.50;;
1719;SDS011;857;52.872;9.692;2022-12-24T11:08:46;19.93;;;5.50;;
1719;SDS011;857;52.872;9.692;2022-12-24T11:11:15;20.13;;;7.00;;
1719;SDS011;857;52.872;9.692;2022-12-24T11:13:44;17.83;;;6.00;;
1719;SDS011;857;52.872;9.692;2022-12-24T11:16:15;17.43;;;7.00;;
1719;SDS011;857;52.872;9.692;2022-12-24T11:18:44;20.10;;;6.47;;
1719;SDS011;857;52.872;9.692;2022-12-24T11:21:17;27.27;;;7.87;;
1719;SDS011;857;52.872;9.692;2022-12-24T11:23:49;19.10;;;6.43;;
1719;SDS011;857;52.872;9.692;2022-12-24T11:26:20;22.23;;;6.20;;
1719;SDS011;857;52.872;9.692;2022-12-24T11:29:00;18.57;;;6.43;;
1719;SDS011;857;52.872;9.692;2022-12-24T11:31:29;21.97;;;7.23;;
1719;SDS011;857;52.872;9.692;2022-12-24T11:33:58;22.98;;;7.90;;
1719;SDS011;857;52.872;9.692;2022-12-24T11:36:25;19.13;;;7.37;;
1719;SDS011;857;52.872;9.692;2022-12-24T11:38:57;21.73;;;6.70;;
1719;SDS011;857;52.872;9.692;2022-12-24T11:41:25;20.13;;;7.03;;
1719;SDS011;857;52.872;9.692;2022-12-24T11:43:57;19.20;;;7.67;;
1719;SDS011;857;52.872;9.692;2022-12-24T11:46:35;22.37;;;6.53;;
1719;SDS011;857;52.872;9.692;2022-12-24T11:49:04;21.43;;;7.03;;
1719;SDS011;857;52.872;9.692;2022-12-24T11:51:32;30.07;;;7.83;;
1719;SDS011;857;52.872;9.692;2022-12-24T11:54:03;24.70;;;8.97;;
1719;SDS011;857;52.872;9.692;2022-12-24T11:56:35;21.57;;;7.10;;
1719;SDS011;857;52.872;9.692;2022-12-24T11:59:07;26.27;;;6.97;;
1719;SDS011;857;52.872;9.692;2022-12-24T12:01:36;24.43;;;5.80;;
1719;SDS011;857;52.872;9.692;2022-12-24T12:04:09;19.10;;;7.00;;
1719;SDS011;857;52.872;9.692;2022-12-24T12:06:39;21.03;;;7.73;;
1719;SDS011;857;52.872;9.692;2022-12-24T12:09:11;22.73;;;7.70;;
1719;SDS011;857;52.872;9.692;2022-12-24T12:11:40;19.03;;;7.67;;
1719;SDS011;857;52.872;9.692;2022-12-24T12:14:12;24.30;;;7.60;;
1719;SDS011;857;52.872;9.692;2022-12-24T12:16:43;21.10;;;8.07;;
1719;SDS011;857;52.872;9.692;2022-12-24T12:19:33;16.83;;;7.50;;
1719;SDS011;857;52.872;9.692;2022-12-24T12:22:02;21.90;;;7.77;;
1719;SDS011;857;52.872;9.692;2022-12-24T12:24:35;26.00;;;7.80;;
1719;SDS011;857;52.872;9.692;2022-12-24T12:27:06;18.33;;;6.30;;
1719;SDS011;857;52.872;9.692;2022-12-24T12:29:39;20.03;;;8.00;;
1719;SDS011;857;52.872;9.692;2022-12-24T12:32:11;22.73;;;7.70;;
1719;SDS011;857;52.872;9.692;2022-12-24T12:34:39;25.50;;;7.97;;
1719;SDS011;857;52.872;9.692;2022-12-24T12:37:10;23.43;;;10.70;;
1719;SDS011;857;52.872;9.692;2022-12-24T12:39:40;20.43;;;8.10;;
1719;SDS011;857;52.872;9.692;2022-12-24T12:42:10;30.07;;;7.50;;
1719;SDS011;857;52.872;9.692;2022-12-24T12:44:42;20.57;;;7.60;;
1719;SDS011;857;52.872;9.692;2022-12-24T12:47:20;26.63;;;8.63;;
1719;SDS011;857;52.872;9.692;2022-12-24T12:49:51;27.30;;;8.93;;
1719;SDS011;857;52.872;9.692;2022-12-24T12:52:25;21.07;;;9.20;;
1719;SDS011;857;52.872;9.692;2022-12-24T12:55:04;27.70;;;8.70;;
1719;SDS011;857;52.872;9.692;2022-12-24T12:57:35;20.23;;;8.00;;
1719;SDS011;857;52.872;9.692;2022-12-24T13:00:04;25.93;;;7.80;;
1719;SDS011;857;52.872;9.692;2022-12-24T13:05:18;25.57;;;8.10;;
1719;SDS011;857;52.872;9.692;2022-12-24T13:10:45;19.10;;;8.00;;
1719;SDS011;857;52.872;9.692;2022-12-24T13:19:06;22.33;;;7.57;;
1719;SDS011;857;52.872;9.692;2022-12-24T13:21:41;18.43;;;7.13;;
1719;SDS011;857;52.872;9.692;2022-12-24T13:24:14;25.23;;;8.03;;
1719;SDS011;857;52.872;9.692;2022-12-24T13:26:58;22.47;;;9.87;;
1719;SDS011;857;52.872;9.692;2022-12-24T13:29:30;20.70;;;8.27;;
1719;SDS011;857;52.872;9.692;2022-12-24T13:34:47;18.17;;;8.13;;
1719;SDS011;857;52.872;9.692;2022-12-24T13:37:19;21.13;;;8.57;;
1719;SDS011;857;52.872;9.692;2022-12-24T13:39:59;22.30;;;8.23;;
1719;SDS011;857;52.872;9.692;2022-12-24T13:42:48;21.03;;;7.47;;
1719;SDS011;857;52.872;9.692;2022-12-24T13:48:12;16.30;;;7.27;;
1719;SDS011;857;52.872;9.692;2022-12-24T13:50:41;18.70;;;7.60;;
1719;SDS011;857;52.872;9.692;2022-12-24T13:53:17;18.43;;;8.50;;
1719;SDS011;857;52.872;9.692;2022-12-24T13:55:48;15.50;;;6.47;;
1719;SDS011;857;52.872;9.692;2022-12-24T13:58:18;17.10;;;6.93;;
1719;SDS011;857;52.872;9.692;2022-12-24T14:00:50;17.57;;;7.60;;
1719;SDS011;857;52.872;9.692;2022-12-24T14:03:21;16.10;;;6.53;;
1719;SDS011;857;52.872;9.692;2022-12-24T14:05:51;12.47;;;7.20;;
1719;SDS011;857;52.872;9.692;2022-12-24T14:08:33;21.33;;;6.47;;
1719;SDS011;857;52.872;9.692;2022-12-24T14:11:03;22.87;;;7.20;;
1719;SDS011;857;52.872;9.692;2022-12-24T14:13:52;21.87;;;7.77;;
1719;SDS011;857;52.872;9.692;2022-12-24T14:16:21;20.30;;;7.43;;
1719;SDS011;857;52.872;9.692;2022-12-24T14:18:56;17.40;;;7.03;;
1719;SDS011;857;52.872;9.692;2022-12-24T14:21:25;18.27;;;7.40;;
1719;SDS011;857;52.872;9.692;2022-12-24T14:23:56;13.20;;;7.13;;
1719;SDS011;857;52.872;9.692;2022-12-24T14:26:26;17.73;;;7.33;;
1719;SDS011;857;52.872;9.692;2022-12-24T14:28:56;17.40;;;6.87;;
1719;SDS011;857;52.872;9.692;2022-12-24T14:31:24;14.37;;;6.57;;
1719;SDS011;857;52.872;9.692;2022-12-24T14:34:04;15.27;;;6.80;;
1719;SDS011;857;52.872;9.692;2022-12-24T14:36:32;19.33;;;6.33;;
1719;SDS011;857;52.872;9.692;2022-12-24T14:38:59;18.73;;;6.93;;
1719;SDS011;857;52.872;9.692;2022-12-24T14:41:30;13.33;;;6.47;;
1719;SDS011;857;52.872;9.692;2022-12-24T14:44:03;10.60;;;5.33;;
1719;SDS011;857;52.872;9.692;2022-12-24T14:46:34;13.97;;;6.53;;
1719;SDS011;857;52.872;9.692;2022-12-24T14:49:06;10.23;;;6.13;;
1719;SDS011;857;52.872;9.692;2022-12-24T14:51:38;18.67;;;5.77;;
1719;SDS011;857;52.872;9.692;2022-12-24T14:57:05;12.00;;;4.80;;
1719;SDS011;857;52.872;9.692;2022-12-24T14:59:40;15.37;;;5.17;;
1719;SDS011;857;52.872;9.692;2022-12-24T15:02:27;7.87;;;4.37;;
1719;SDS011;857;52.872;9.692;2022-12-24T15:05:03;12.60;;;5.20;;
1719;SDS011;857;52.872;9.692;2022-12-24T15:07:30;14.10;;;4.77;;
1719;SDS011;857;52.872;9.692;2022-12-24T15:09:58;12.03;;;6.27;;
1719;SDS011;857;52.872;9.692;2022-12-24T15:12:27;12.73;;;5.53;;
1719;SDS011;857;52.872;9.692;2022-12-24T15:14:56;8.90;;;5.50;;
1719;SDS011;857;52.872;9.692;2022-12-24T15:17:24;12.07;;;5.20;;
1719;SDS011;857;52.872;9.692;2022-12-24T15:19:52;15.77;;;6.23;;
1719;SDS011;857;52.872;9.692;2022-12-24T15:22:23;17.80;;;5.93;;
1719;SDS011;857;52.872;9.692;2022-12-24T15:24:51;11.70;;;4.70;;
1719;SDS011;857;52.872;9.692;2022-12-24T15:27:20;14.37;;;4.50;;
1719;SDS011;857;52.872;9.692;2022-12-24T15:29:49;17.70;;;5.10;;
1719;SDS011;857;52.872;9.692;2022-12-24T15:32:19;14.27;;;5.57;;
1719;SDS011;857;52.872;9.692;2022-12-24T15:34:47;13.50;;;5.20;;
1719;SDS011;857;52.872;9.692;2022-12-24T15:37:16;12.00;;;4.77;;
1719;SDS011;857;52.872;9.692;2022-12-24T15:39:50;12.20;;;4.97;;
1719;SDS011;857;52.872;9.692;2022-12-24T15:42:19;8.80;;;5.70;;
1719;SDS011;857;52.872;9.692;2022-12-24T15:44:53;14.97;;;5.80;;
1719;SDS011;857;52.872;9.692;2022-12-24T15:47:25;13.73;;;6.00;;
1719;SDS011;857;52.872;9.692;2022-12-24T15:49:53;13.10;;;5.00;;
1719;SDS011;857;52.872;9.692;2022-12-24T15:52:22;13.20;;;5.23;;
1719;SDS011;857;52.872;9.692;2022-12-24T15:54:50;13.63;;;5.23;;
1719;SDS011;857;52.872;9.692;2022-12-24T15:57:23;14.37;;;4.73;;
1719;SDS011;857;52.872;9.692;2022-12-24T15:59:51;9.07;;;5.00;;